sensor_id;sensor_type;location;lat;lon;timestamp;P1;durP1;ratioP1;P2;durP2;ratioP2
39874;SDS011;25547;52.530;13.194;2023-06-26T00:01:57;7.75;;;4.30;;
39874;SDS011;25547;52.530;13.194;2023-06-26T00:04:23;5.55;;;4.13;;
39874;SDS011;25547;52.530;13.194;2023-06-26T00:06:51;4.22;;;3.83;;
39874;SDS011;25547;52.530;13.194;2023-06-26T00:09:16;7.07;;;4.65;;
39874;SDS011;25547;52.530;13.194;2023-06-26T00:11:42;6.07;;;4.07;;
39874;SDS011;25547;52.530;13.194;2023-06-26T00:14:08;6.65;;;4.90;;
39874;SDS011;25547;52.530;13.194;2023-06-26T00:16:33;5.35;;;3.35;;
39874;SDS011;25547;52.530;13.194;2023-06-26T00:18:59;5.95;;;3.75;;
39874;SDS011;25547;52.530;13.194;2023-06-26T00:21:27;5.72;;;4.03;;
39874;SDS011;25547;52.530;13.194;2023-06-26T00:23:55;7.18;;;3.58;;
39874;SDS011;25547;52.530;13.194;2023-06-26T00:26:20;5.88;;;3.90;;
39874;SDS011;25547;52.530;13.194;2023-06-26T00:28:49;5.18;;;4.30;;
39874;SDS011;25547;52.530;13.194;2023-06-26T00:31:17;6.18;;;4.32;;
39874;SDS011;25547;52.530;13.194;2023-06-26T00:33:43;5.28;;;4.03;;
39874;SDS011;25547;52.530;13.194;2023-06-26T00:36:11;6.47;;;4.32;;
39874;SDS011;25547;52.530;13.194;2023-06-26T00:38:37;5.72;;;3.95;;
39874;SDS011;25547;52.530;13.194;2023-06-26T00:41:05;6.45;;;4.38;;
39874;SDS011;25547;52.530;13.194;2023-06-26T00:43:37;5.22;;;4.60;;
39874;SDS011;25547;52.530;13.194;2023-06-26T00:46:03;6.07;;;5.10;;
39874;SDS011;25547;52.530;13.194;2023-06-26T00:48:28;6.38;;;4.88;;
39874;SDS011;25547;52.530;13.194;2023-06-26T00:50:54;7.40;;;4.95;;
39874;SDS011;25547;52.530;13.194;2023-06-26T00:53:20;9.70;;;5.07;;
39874;SDS011;25547;52.530;13.194;2023-06-26T00:55:47;6.40;;;4.07;;
39874;SDS011;25547;52.530;13.194;2023-06-26T00:58:12;6.18;;;4.55;;
39874;SDS011;25547;52.530;13.194;2023-06-26T01:00:40;5.70;;;4.72;;
39874;SDS011;25547;52.530;13.194;2023-06-26T01:03:10;9.57;;;4.78;;
39874;SDS011;25547;52.530;13.194;2023-06-26T01:05:36;4.65;;;4.05;;
39874;SDS011;25547;52.530;13.194;2023-06-26T01:08:03;4.90;;;4.40;;
39874;SDS011;25547;52.530;13.194;2023-06-26T01:10:29;5.20;;;4.05;;
39874;SDS011;25547;52.530;13.194;2023-06-26T01:12:56;6.47;;;4.32;;
39874;SDS011;25547;52.530;13.194;2023-06-26T01:15:22;6.20;;;4.70;;
39874;SDS011;25547;52.530;13.194;2023-06-26T01:17:48;6.53;;;4.45;;
39874;SDS011;25547;52.530;13.194;2023-06-26T01:20:15;6.50;;;5.50;;
39874;SDS011;25547;52.530;13.194;2023-06-26T01:25:21;7.80;;;4.72;;
39874;SDS011;25547;52.530;13.194;2023-06-26T01:28:03;4.82;;;3.95;;
39874;SDS011;25547;52.530;13.194;2023-06-26T01:30:44;6.88;;;4.45;;
39874;SDS011;25547;52.530;13.194;2023-06-26T01:33:13;5.57;;;4.20;;
39874;SDS011;25547;52.530;13.194;2023-06-26T01:35:42;5.70;;;4.20;;
39874;SDS011;25547;52.530;13.194;2023-06-26T01:38:18;7.97;;;4.05;;
39874;SDS011;25547;52.530;13.194;2023-06-26T01:40:45;4.68;;;4.22;;
39874;SDS011;25547;52.530;13.194;2023-06-26T01:45:59;9.18;;;4.57;;
39874;SDS011;25547;52.530;13.194;2023-06-26T01:51:12;7.50;;;4.95;;
39874;SDS011;25547;52.530;13.194;2023-06-26T01:53:41;5.53;;;3.75;;
39874;SDS011;25547;52.530;13.194;2023-06-26T01:56:13;5.28;;;3.97;;
39874;SDS011;25547;52.530;13.194;2023-06-26T01:58:41;5.30;;;4.40;;
39874;SDS011;25547;52.530;13.194;2023-06-26T02:01:14;5.85;;;4.88;;
39874;SDS011;25547;52.530;13.194;2023-06-26T02:03:42;7.03;;;4.57;;
39874;SDS011;25547;52.530;13.194;2023-06-26T02:06:08;7.25;;;3.90;;
39874;SDS011;25547;52.530;13.194;2023-06-26T02:08:36;4.78;;;3.95;;
39874;SDS011;25547;52.530;13.194;2023-06-26T02:11:02;4.93;;;3.75;;
39874;SDS011;25547;52.530;13.194;2023-06-26T02:13:30;5.07;;;3.85;;
39874;SDS011;25547;52.530;13.194;2023-06-26T02:15:55;6.13;;;4.70;;
39874;SDS011;25547;52.530;13.194;2023-06-26T02:18:21;8.55;;;5.40;;
39874;SDS011;25547;52.530;13.194;2023-06-26T02:20:47;8.80;;;5.45;;
39874;SDS011;25547;52.530;13.194;2023-06-26T02:23:13;5.43;;;4.28;;
39874;SDS011;25547;52.530;13.194;2023-06-26T02:25:41;6.07;;;4.82;;
39874;SDS011;25547;52.530;13.194;2023-06-26T02:28:06;6.60;;;3.58;;
39874;SDS011;25547;52.530;13.194;2023-06-26T02:30:32;7.25;;;5.20;;
39874;SDS011;25547;52.530;13.194;2023-06-26T02:33:00;6.40;;;4.40;;
39874;SDS011;25547;52.530;13.194;2023-06-26T02:35:25;5.05;;;4.45;;
39874;SDS011;25547;52.530;13.194;2023-06-26T02:37:53;9.50;;;5.20;;
39874;SDS011;25547;52.530;13.194;2023-06-26T02:40:21;7.78;;;5.63;;
39874;SDS011;25547;52.530;13.194;2023-06-26T02:42:47;7.72;;;6.22;;
39874;SDS011;25547;52.530;13.194;2023-06-26T02:45:12;7.55;;;5.00;;
39874;SDS011;25547;52.530;13.194;2023-06-26T02:47:38;9.10;;;5.32;;
39874;SDS011;25547;52.530;13.194;2023-06-26T02:50:05;7.88;;;4.53;;
39874;SDS011;25547;52.530;13.194;2023-06-26T02:52:31;6.93;;;4.97;;
39874;SDS011;25547;52.530;13.194;2023-06-26T02:54:57;5.60;;;4.13;;
39874;SDS011;25547;52.530;13.194;2023-06-26T02:57:25;7.03;;;5.57;;
39874;SDS011;25547;52.530;13.194;2023-06-26T02:59:51;5.97;;;4.45;;
39874;SDS011;25547;52.530;13.194;2023-06-26T03:02:16;6.70;;;4.78;;
39874;SDS011;25547;52.530;13.194;2023-06-26T03:04:42;6.32;;;5.40;;
39874;SDS011;25547;52.530;13.194;2023-06-26T03:07:08;7.55;;;5.10;;
39874;SDS011;25547;52.530;13.194;2023-06-26T03:09:34;5.03;;;4.55;;
39874;SDS011;25547;52.530;13.194;2023-06-26T03:12:02;8.68;;;5.65;;
39874;SDS011;25547;52.530;13.194;2023-06-26T03:14:27;8.65;;;5.38;;
39874;SDS011;25547;52.530;13.194;2023-06-26T03:16:57;8.57;;;5.55;;
39874;SDS011;25547;52.530;13.194;2023-06-26T03:19:28;7.07;;;5.45;;
39874;SDS011;25547;52.530;13.194;2023-06-26T03:21:54;5.50;;;4.70;;
39874;SDS011;25547;52.530;13.194;2023-06-26T03:24:21;6.88;;;5.50;;
39874;SDS011;25547;52.530;13.194;2023-06-26T03:26:47;7.20;;;5.22;;
39874;SDS011;25547;52.530;13.194;2023-06-26T03:29:18;9.30;;;6.18;;
39874;SDS011;25547;52.530;13.194;2023-06-26T03:31:46;8.27;;;5.35;;
39874;SDS011;25547;52.530;13.194;2023-06-26T03:34:14;8.07;;;5.43;;
39874;SDS011;25547;52.530;13.194;2023-06-26T03:36:42;6.03;;;4.97;;
39874;SDS011;25547;52.530;13.194;2023-06-26T03:39:08;8.50;;;4.43;;
39874;SDS011;25547;52.530;13.194;2023-06-26T03:41:36;6.35;;;3.75;;
39874;SDS011;25547;52.530;13.194;2023-06-26T03:44:04;5.72;;;3.85;;
39874;SDS011;25547;52.530;13.194;2023-06-26T03:46:29;5.95;;;4.72;;
39874;SDS011;25547;52.530;13.194;2023-06-26T03:48:55;6.07;;;4.57;;
39874;SDS011;25547;52.530;13.194;2023-06-26T03:51:20;8.07;;;4.70;;
39874;SDS011;25547;52.530;13.194;2023-06-26T03:53:46;6.40;;;4.90;;
39874;SDS011;25547;52.530;13.194;2023-06-26T03:56:15;6.10;;;4.68;;
39874;SDS011;25547;52.530;13.194;2023-06-26T03:58:42;7.05;;;4.35;;
39874;SDS011;25547;52.530;13.194;2023-06-26T04:03:41;7.65;;;4.63;;
39874;SDS011;25547;52.530;13.194;2023-06-26T04:06:09;6.13;;;5.47;;
39874;SDS011;25547;52.530;13.194;2023-06-26T04:08:34;5.80;;;5.20;;
39874;SDS011;25547;52.530;13.194;2023-06-26T04:11:00;7.50;;;5.05;;
39874;SDS011;25547;52.530;13.194;2023-06-26T04:13:26;8.65;;;5.57;;
39874;SDS011;25547;52.530;13.194;2023-06-26T04:15:51;6.60;;;5.15;;
39874;SDS011;25547;52.530;13.194;2023-06-26T04:18:17;7.80;;;5.38;;
39874;SDS011;25547;52.530;13.194;2023-06-26T04:21:03;6.40;;;5.57;;
39874;SDS011;25547;52.530;13.194;2023-06-26T04:23:33;7.97;;;5.97;;
39874;SDS011;25547;52.530;13.194;2023-06-26T04:25:59;9.50;;;5.95;;
39874;SDS011;25547;52.530;13.194;2023-06-26T04:28:25;6.78;;;6.07;;
39874;SDS011;25547;52.530;13.194;2023-06-26T04:30:56;11.30;;;7.93;;
39874;SDS011;25547;52.530;13.194;2023-06-26T04:33:21;6.47;;;5.30;;
39874;SDS011;25547;52.530;13.194;2023-06-26T04:35:48;8.40;;;4.80;;
39874;SDS011;25547;52.530;13.194;2023-06-26T04:38:16;6.75;;;4.57;;
39874;SDS011;25547;52.530;13.194;2023-06-26T04:40:42;8.52;;;5.97;;
39874;SDS011;25547;52.530;13.194;2023-06-26T04:43:08;5.80;;;4.60;;
39874;SDS011;25547;52.530;13.194;2023-06-26T04:45:33;6.32;;;5.50;;
39874;SDS011;25547;52.530;13.194;2023-06-26T04:47:59;8.98;;;4.05;;
39874;SDS011;25547;52.530;13.194;2023-06-26T04:50:27;8.68;;;3.97;;
39874;SDS011;25547;52.530;13.194;2023-06-26T04:52:54;9.02;;;5.10;;
39874;SDS011;25547;52.530;13.194;2023-06-26T04:55:20;5.53;;;4.10;;
39874;SDS011;25547;52.530;13.194;2023-06-26T04:57:51;14.05;;;4.88;;
39874;SDS011;25547;52.530;13.194;2023-06-26T05:00:17;5.78;;;4.40;;
39874;SDS011;25547;52.530;13.194;2023-06-26T05:02:43;6.03;;;4.38;;
39874;SDS011;25547;52.530;13.194;2023-06-26T05:05:11;7.57;;;5.05;;
39874;SDS011;25547;52.530;13.194;2023-06-26T05:07:41;7.03;;;4.65;;
39874;SDS011;25547;52.530;13.194;2023-06-26T05:10:07;23.92;;;15.77;;
39874;SDS011;25547;52.530;13.194;2023-06-26T05:12:33;15.35;;;9.18;;
39874;SDS011;25547;52.530;13.194;2023-06-26T05:14:59;4.43;;;4.00;;
39874;SDS011;25547;52.530;13.194;2023-06-26T05:17:24;4.93;;;4.43;;
39874;SDS011;25547;52.530;13.194;2023-06-26T05:19:50;4.03;;;3.50;;
39874;SDS011;25547;52.530;13.194;2023-06-26T05:22:16;8.20;;;4.68;;
39874;SDS011;25547;52.530;13.194;2023-06-26T05:24:45;5.78;;;4.00;;
39874;SDS011;25547;52.530;13.194;2023-06-26T05:27:12;5.38;;;4.47;;
39874;SDS011;25547;52.530;13.194;2023-06-26T05:29:46;5.68;;;5.05;;
39874;SDS011;25547;52.530;13.194;2023-06-26T05:32:12;5.20;;;3.90;;
39874;SDS011;25547;52.530;13.194;2023-06-26T05:34:47;7.20;;;4.20;;
39874;SDS011;25547;52.530;13.194;2023-06-26T05:37:22;7.50;;;5.47;;
39874;SDS011;25547;52.530;13.194;2023-06-26T05:39:55;5.80;;;4.65;;
39874;SDS011;25547;52.530;13.194;2023-06-26T05:42:23;7.90;;;4.90;;
39874;SDS011;25547;52.530;13.194;2023-06-26T05:44:49;8.18;;;4.85;;
39874;SDS011;25547;52.530;13.194;2023-06-26T05:47:19;7.28;;;5.68;;
39874;SDS011;25547;52.530;13.194;2023-06-26T05:49:45;14.80;;;4.70;;
39874;SDS011;25547;52.530;13.194;2023-06-26T05:52:11;8.23;;;4.47;;
39874;SDS011;25547;52.530;13.194;2023-06-26T05:54:37;7.60;;;4.65;;
39874;SDS011;25547;52.530;13.194;2023-06-26T05:57:03;5.68;;;4.07;;
39874;SDS011;25547;52.530;13.194;2023-06-26T05:59:30;6.97;;;3.75;;
39874;SDS011;25547;52.530;13.194;2023-06-26T06:01:57;4.43;;;3.25;;
39874;SDS011;25547;52.530;13.194;2023-06-26T06:04:22;4.18;;;3.03;;
39874;SDS011;25547;52.530;13.194;2023-06-26T06:06:48;5.43;;;4.30;;
39874;SDS011;25547;52.530;13.194;2023-06-26T06:09:14;4.80;;;3.42;;
39874;SDS011;25547;52.530;13.194;2023-06-26T06:11:39;4.93;;;3.78;;
39874;SDS011;25547;52.530;13.194;2023-06-26T06:14:08;6.10;;;3.17;;
39874;SDS011;25547;52.530;13.194;2023-06-26T06:16:33;7.40;;;4.65;;
39874;SDS011;25547;52.530;13.194;2023-06-26T06:19:01;7.93;;;4.10;;
39874;SDS011;25547;52.530;13.194;2023-06-26T06:21:28;6.15;;;3.78;;
39874;SDS011;25547;52.530;13.194;2023-06-26T06:23:54;5.15;;;3.47;;
39874;SDS011;25547;52.530;13.194;2023-06-26T06:26:22;5.78;;;3.97;;
39874;SDS011;25547;52.530;13.194;2023-06-26T06:28:47;8.77;;;4.10;;
39874;SDS011;25547;52.530;13.194;2023-06-26T06:31:15;4.72;;;2.85;;
39874;SDS011;25547;52.530;13.194;2023-06-26T06:33:41;6.93;;;3.05;;
39874;SDS011;25547;52.530;13.194;2023-06-26T06:36:06;3.53;;;2.47;;
39874;SDS011;25547;52.530;13.194;2023-06-26T06:38:37;5.05;;;2.65;;
39874;SDS011;25547;52.530;13.194;2023-06-26T06:41:02;5.38;;;2.92;;
39874;SDS011;25547;52.530;13.194;2023-06-26T06:43:28;3.45;;;2.15;;
39874;SDS011;25547;52.530;13.194;2023-06-26T06:45:54;7.35;;;2.53;;
39874;SDS011;25547;52.530;13.194;2023-06-26T06:48:22;2.92;;;2.25;;
39874;SDS011;25547;52.530;13.194;2023-06-26T06:50:47;4.40;;;2.60;;
39874;SDS011;25547;52.530;13.194;2023-06-26T06:53:17;3.20;;;2.80;;
39874;SDS011;25547;52.530;13.194;2023-06-26T06:55:45;8.07;;;2.38;;
39874;SDS011;25547;52.530;13.194;2023-06-26T06:58:14;4.32;;;2.72;;
39874;SDS011;25547;52.530;13.194;2023-06-26T07:00:41;3.13;;;2.05;;
39874;SDS011;25547;52.530;13.194;2023-06-26T07:03:07;6.35;;;2.67;;
39874;SDS011;25547;52.530;13.194;2023-06-26T07:05:33;5.78;;;2.75;;
39874;SDS011;25547;52.530;13.194;2023-06-26T07:07:58;5.07;;;1.95;;
39874;SDS011;25547;52.530;13.194;2023-06-26T07:10:27;2.88;;;1.65;;
39874;SDS011;25547;52.530;13.194;2023-06-26T07:12:52;3.17;;;1.42;;
39874;SDS011;25547;52.530;13.194;2023-06-26T07:15:18;2.95;;;1.70;;
39874;SDS011;25547;52.530;13.194;2023-06-26T07:17:43;5.95;;;1.67;;
39874;SDS011;25547;52.530;13.194;2023-06-26T07:20:09;7.95;;;2.28;;
39874;SDS011;25547;52.530;13.194;2023-06-26T07:22:40;2.85;;;1.42;;
39874;SDS011;25547;52.530;13.194;2023-06-26T07:25:06;11.52;;;2.63;;
39874;SDS011;25547;52.530;13.194;2023-06-26T07:27:34;3.17;;;1.10;;
39874;SDS011;25547;52.530;13.194;2023-06-26T07:30:07;2.92;;;1.20;;
39874;SDS011;25547;52.530;13.194;2023-06-26T07:32:34;2.42;;;1.17;;
39874;SDS011;25547;52.530;13.194;2023-06-26T07:35:02;2.47;;;0.90;;
39874;SDS011;25547;52.530;13.194;2023-06-26T07:37:30;1.73;;;1.10;;
39874;SDS011;25547;52.530;13.194;2023-06-26T07:39:56;1.95;;;0.98;;
39874;SDS011;25547;52.530;13.194;2023-06-26T07:42:22;3.55;;;1.50;;
39874;SDS011;25547;52.530;13.194;2023-06-26T07:44:50;2.38;;;1.08;;
39874;SDS011;25547;52.530;13.194;2023-06-26T07:47:16;2.90;;;0.90;;
39874;SDS011;25547;52.530;13.194;2023-06-26T07:49:44;1.98;;;0.98;;
39874;SDS011;25547;52.530;13.194;2023-06-26T07:52:09;1.45;;;0.70;;
39874;SDS011;25547;52.530;13.194;2023-06-26T07:54:36;1.85;;;0.70;;
39874;SDS011;25547;52.530;13.194;2023-06-26T07:57:02;1.98;;;0.93;;
39874;SDS011;25547;52.530;13.194;2023-06-26T07:59:32;2.90;;;0.98;;
39874;SDS011;25547;52.530;13.194;2023-06-26T08:01:58;5.72;;;1.20;;
39874;SDS011;25547;52.530;13.194;2023-06-26T08:04:25;2.08;;;1.20;;
39874;SDS011;25547;52.530;13.194;2023-06-26T08:06:52;3.00;;;0.73;;
39874;SDS011;25547;52.530;13.194;2023-06-26T08:09:19;2.53;;;0.93;;
39874;SDS011;25547;52.530;13.194;2023-06-26T08:11:47;2.20;;;1.17;;
39874;SDS011;25547;52.530;13.194;2023-06-26T08:14:13;5.38;;;1.27;;
39874;SDS011;25547;52.530;13.194;2023-06-26T08:16:39;3.53;;;1.23;;
39874;SDS011;25547;52.530;13.194;2023-06-26T08:19:08;3.00;;;1.00;;
39874;SDS011;25547;52.530;13.194;2023-06-26T08:21:37;2.33;;;0.55;;
39874;SDS011;25547;52.530;13.194;2023-06-26T08:24:02;6.53;;;0.50;;
39874;SDS011;25547;52.530;13.194;2023-06-26T08:26:28;2.67;;;0.85;;
39874;SDS011;25547;52.530;13.194;2023-06-26T08:28:56;1.33;;;0.60;;
39874;SDS011;25547;52.530;13.194;2023-06-26T08:31:24;2.38;;;0.77;;
39874;SDS011;25547;52.530;13.194;2023-06-26T08:33:52;2.67;;;0.50;;
39874;SDS011;25547;52.530;13.194;2023-06-26T08:36:18;1.92;;;0.65;;
39874;SDS011;25547;52.530;13.194;2023-06-26T08:38:43;1.75;;;0.70;;
39874;SDS011;25547;52.530;13.194;2023-06-26T08:41:09;3.65;;;0.82;;
39874;SDS011;25547;52.530;13.194;2023-06-26T08:43:35;2.53;;;1.35;;
39874;SDS011;25547;52.530;13.194;2023-06-26T08:46:03;1.85;;;1.10;;
39874;SDS011;25547;52.530;13.194;2023-06-26T08:48:29;3.20;;;0.93;;
39874;SDS011;25547;52.530;13.194;2023-06-26T08:51:01;3.38;;;0.95;;
39874;SDS011;25547;52.530;13.194;2023-06-26T08:56:12;2.35;;;0.95;;
39874;SDS011;25547;52.530;13.194;2023-06-26T08:58:42;1.75;;;0.73;;
39874;SDS011;25547;52.530;13.194;2023-06-26T09:01:08;2.80;;;0.95;;
39874;SDS011;25547;52.530;13.194;2023-06-26T09:03:35;4.18;;;1.45;;
39874;SDS011;25547;52.530;13.194;2023-06-26T09:06:01;3.55;;;0.75;;
39874;SDS011;25547;52.530;13.194;2023-06-26T09:08:26;7.28;;;1.50;;
39874;SDS011;25547;52.530;13.194;2023-06-26T09:10:52;2.20;;;1.02;;
39874;SDS011;25547;52.530;13.194;2023-06-26T09:13:18;2.33;;;1.05;;
39874;SDS011;25547;52.530;13.194;2023-06-26T09:15:44;2.47;;;0.55;;
39874;SDS011;25547;52.530;13.194;2023-06-26T09:18:14;5.57;;;0.90;;
39874;SDS011;25547;52.530;13.194;2023-06-26T09:23:11;3.22;;;0.90;;
39874;SDS011;25547;52.530;13.194;2023-06-26T09:25:37;2.20;;;0.75;;
39874;SDS011;25547;52.530;13.194;2023-06-26T09:28:05;4.63;;;0.90;;
39874;SDS011;25547;52.530;13.194;2023-06-26T09:30:33;3.45;;;0.60;;
39874;SDS011;25547;52.530;13.194;2023-06-26T09:33:18;2.13;;;0.60;;
39874;SDS011;25547;52.530;13.194;2023-06-26T09:35:44;1.50;;;0.40;;
39874;SDS011;25547;52.530;13.194;2023-06-26T09:38:13;3.78;;;0.60;;
39874;SDS011;25547;52.530;13.194;2023-06-26T09:40:43;1.60;;;0.68;;
39874;SDS011;25547;52.530;13.194;2023-06-26T09:43:09;2.55;;;1.02;;
39874;SDS011;25547;52.530;13.194;2023-06-26T09:45:40;1.50;;;0.52;;
39874;SDS011;25547;52.530;13.194;2023-06-26T09:48:08;1.55;;;0.60;;
39874;SDS011;25547;52.530;13.194;2023-06-26T09:50:34;4.47;;;0.50;;
39874;SDS011;25547;52.530;13.194;2023-06-26T09:53:12;2.83;;;0.30;;
39874;SDS011;25547;52.530;13.194;2023-06-26T09:55:39;1.98;;;0.77;;
39874;SDS011;25547;52.530;13.194;2023-06-26T09:58:10;4.80;;;0.60;;
39874;SDS011;25547;52.530;13.194;2023-06-26T10:00:40;1.92;;;0.93;;
39874;SDS011;25547;52.530;13.194;2023-06-26T10:03:10;2.22;;;0.55;;
39874;SDS011;25547;52.530;13.194;2023-06-26T10:05:37;5.38;;;0.60;;
39874;SDS011;25547;52.530;13.194;2023-06-26T10:08:04;2.42;;;0.80;;
39874;SDS011;25547;52.530;13.194;2023-06-26T10:10:30;1.48;;;0.57;;
39874;SDS011;25547;52.530;13.194;2023-06-26T10:13:00;1.87;;;0.40;;
39874;SDS011;25547;52.530;13.194;2023-06-26T10:15:43;1.35;;;0.57;;
39874;SDS011;25547;52.530;13.194;2023-06-26T10:18:10;5.38;;;0.90;;
39874;SDS011;25547;52.530;13.194;2023-06-26T10:20:40;3.75;;;0.80;;
39874;SDS011;25547;52.530;13.194;2023-06-26T10:23:11;1.17;;;0.52;;
39874;SDS011;25547;52.530;13.194;2023-06-26T10:25:40;1.50;;;0.50;;
39874;SDS011;25547;52.530;13.194;2023-06-26T10:28:09;2.30;;;0.90;;
39874;SDS011;25547;52.530;13.194;2023-06-26T10:30:39;1.50;;;0.30;;
39874;SDS011;25547;52.530;13.194;2023-06-26T10:33:07;1.48;;;0.45;;
39874;SDS011;25547;52.530;13.194;2023-06-26T10:35:34;2.63;;;1.02;;
39874;SDS011;25547;52.530;13.194;2023-06-26T10:38:08;1.98;;;0.40;;
39874;SDS011;25547;52.530;13.194;2023-06-26T10:40:40;2.67;;;0.40;;
39874;SDS011;25547;52.530;13.194;2023-06-26T10:43:17;2.33;;;0.80;;
39874;SDS011;25547;52.530;13.194;2023-06-26T10:45:44;2.50;;;0.73;;
39874;SDS011;25547;52.530;13.194;2023-06-26T10:48:19;1.85;;;0.45;;
39874;SDS011;25547;52.530;13.194;2023-06-26T10:50:48;1.30;;;0.60;;
39874;SDS011;25547;52.530;13.194;2023-06-26T10:55:59;1.60;;;0.70;;
39874;SDS011;25547;52.530;13.194;2023-06-26T11:01:25;1.88;;;0.57;;
39874;SDS011;25547;52.530;13.194;2023-06-26T11:04:04;1.70;;;0.75;;
39874;SDS011;25547;52.530;13.194;2023-06-26T11:06:31;1.50;;;0.50;;
39874;SDS011;25547;52.530;13.194;2023-06-26T11:09:01;1.70;;;0.52;;
39874;SDS011;25547;52.530;13.194;2023-06-26T11:14:26;2.33;;;0.75;;
39874;SDS011;25547;52.530;13.194;2023-06-26T11:16:52;2.92;;;0.70;;
39874;SDS011;25547;52.530;13.194;2023-06-26T11:19:21;2.30;;;0.60;;
39874;SDS011;25547;52.530;13.194;2023-06-26T11:21:46;4.05;;;0.90;;
39874;SDS011;25547;52.530;13.194;2023-06-26T11:24:17;2.75;;;1.50;;
39874;SDS011;25547;52.530;13.194;2023-06-26T11:26:44;1.85;;;0.85;;
39874;SDS011;25547;52.530;13.194;2023-06-26T11:29:12;8.52;;;1.98;;
39874;SDS011;25547;52.530;13.194;2023-06-26T11:31:38;2.00;;;0.68;;
39874;SDS011;25547;52.530;13.194;2023-06-26T11:36:36;1.85;;;0.70;;
39874;SDS011;25547;52.530;13.194;2023-06-26T11:39:05;1.63;;;0.60;;
39874;SDS011;25547;52.530;13.194;2023-06-26T11:41:34;2.63;;;0.85;;
39874;SDS011;25547;52.530;13.194;2023-06-26T11:44:01;1.98;;;0.75;;
39874;SDS011;25547;52.530;13.194;2023-06-26T11:46:27;1.75;;;0.60;;
39874;SDS011;25547;52.530;13.194;2023-06-26T11:48:53;2.13;;;0.55;;
39874;SDS011;25547;52.530;13.194;2023-06-26T11:51:21;2.20;;;0.80;;
39874;SDS011;25547;52.530;13.194;2023-06-26T11:53:47;1.85;;;0.50;;
39874;SDS011;25547;52.530;13.194;2023-06-26T11:56:16;2.88;;;0.75;;
39874;SDS011;25547;52.530;13.194;2023-06-26T12:04:07;5.32;;;0.98;;
39874;SDS011;25547;52.530;13.194;2023-06-26T12:06:34;4.57;;;0.88;;
39874;SDS011;25547;52.530;13.194;2023-06-26T12:09:05;1.70;;;0.68;;
39874;SDS011;25547;52.530;13.194;2023-06-26T12:11:32;2.08;;;0.88;;
39874;SDS011;25547;52.530;13.194;2023-06-26T12:13:59;2.95;;;1.00;;
39874;SDS011;25547;52.530;13.194;2023-06-26T12:16:26;1.80;;;0.90;;
39874;SDS011;25547;52.530;13.194;2023-06-26T12:18:58;1.90;;;0.93;;
39874;SDS011;25547;52.530;13.194;2023-06-26T12:21:49;2.00;;;0.70;;
39874;SDS011;25547;52.530;13.194;2023-06-26T12:24:18;3.03;;;0.77;;
39874;SDS011;25547;52.530;13.194;2023-06-26T12:26:52;2.08;;;0.90;;
39874;SDS011;25547;52.530;13.194;2023-06-26T12:29:21;3.78;;;0.70;;
39874;SDS011;25547;52.530;13.194;2023-06-26T12:31:58;2.70;;;0.93;;
39874;SDS011;25547;52.530;13.194;2023-06-26T12:34:34;9.55;;;4.68;;
39874;SDS011;25547;52.530;13.194;2023-06-26T12:37:01;3.13;;;0.80;;
39874;SDS011;25547;52.530;13.194;2023-06-26T12:39:28;2.42;;;0.85;;
39874;SDS011;25547;52.530;13.194;2023-06-26T12:41:55;3.15;;;1.13;;
39874;SDS011;25547;52.530;13.194;2023-06-26T12:44:26;2.80;;;1.13;;
39874;SDS011;25547;52.530;13.194;2023-06-26T12:49:19;4.60;;;1.20;;
39874;SDS011;25547;52.530;13.194;2023-06-26T12:51:45;3.08;;;1.65;;
39874;SDS011;25547;52.530;13.194;2023-06-26T12:54:11;4.88;;;1.20;;
39874;SDS011;25547;52.530;13.194;2023-06-26T12:56:36;5.53;;;1.83;;
39874;SDS011;25547;52.530;13.194;2023-06-26T12:59:05;2.10;;;1.20;;
39874;SDS011;25547;52.530;13.194;2023-06-26T13:01:33;3.63;;;1.25;;
39874;SDS011;25547;52.530;13.194;2023-06-26T13:04:01;3.70;;;1.40;;
39874;SDS011;25547;52.530;13.194;2023-06-26T13:06:30;2.75;;;1.40;;
39874;SDS011;25547;52.530;13.194;2023-06-26T13:08:56;3.95;;;1.15;;
39874;SDS011;25547;52.530;13.194;2023-06-26T13:11:26;2.60;;;1.67;;
39874;SDS011;25547;52.530;13.194;2023-06-26T13:13:54;2.47;;;1.20;;
39874;SDS011;25547;52.530;13.194;2023-06-26T13:16:20;2.45;;;1.40;;
39874;SDS011;25547;52.530;13.194;2023-06-26T13:18:45;6.00;;;1.40;;
39874;SDS011;25547;52.530;13.194;2023-06-26T13:21:12;2.90;;;1.75;;
39874;SDS011;25547;52.530;13.194;2023-06-26T13:23:40;4.05;;;2.00;;
39874;SDS011;25547;52.530;13.194;2023-06-26T13:26:09;5.72;;;1.60;;
39874;SDS011;25547;52.530;13.194;2023-06-26T13:28:37;3.63;;;1.13;;
39874;SDS011;25547;52.530;13.194;2023-06-26T13:31:03;2.67;;;1.70;;
39874;SDS011;25547;52.530;13.194;2023-06-26T13:33:29;3.13;;;1.20;;
39874;SDS011;25547;52.530;13.194;2023-06-26T13:35:56;4.70;;;1.90;;
39874;SDS011;25547;52.530;13.194;2023-06-26T13:38:22;2.20;;;1.50;;
39874;SDS011;25547;52.530;13.194;2023-06-26T13:40:52;3.00;;;1.45;;
39874;SDS011;25547;52.530;13.194;2023-06-26T13:43:19;2.58;;;1.23;;
39874;SDS011;25547;52.530;13.194;2023-06-26T13:45:48;5.72;;;1.92;;
39874;SDS011;25547;52.530;13.194;2023-06-26T13:48:14;3.05;;;1.40;;
39874;SDS011;25547;52.530;13.194;2023-06-26T13:50:40;2.50;;;1.27;;
39874;SDS011;25547;52.530;13.194;2023-06-26T13:53:08;2.90;;;1.63;;
39874;SDS011;25547;52.530;13.194;2023-06-26T13:55:34;2.83;;;1.60;;
39874;SDS011;25547;52.530;13.194;2023-06-26T13:58:00;5.63;;;1.95;;
39874;SDS011;25547;52.530;13.194;2023-06-26T14:00:30;7.22;;;1.23;;
39874;SDS011;25547;52.530;13.194;2023-06-26T14:02:56;6.65;;;1.20;;
39874;SDS011;25547;52.530;13.194;2023-06-26T14:05:22;5.30;;;0.88;;
39874;SDS011;25547;52.530;13.194;2023-06-26T14:07:50;20.65;;;4.00;;
39874;SDS011;25547;52.530;13.194;2023-06-26T14:10:15;15.07;;;4.47;;
39874;SDS011;25547;52.530;13.194;2023-06-26T14:12:41;13.40;;;5.07;;
39874;SDS011;25547;52.530;13.194;2023-06-26T14:15:09;14.35;;;7.93;;
39874;SDS011;25547;52.530;13.194;2023-06-26T14:17:35;6.00;;;2.00;;
39874;SDS011;25547;52.530;13.194;2023-06-26T14:20:00;5.30;;;0.38;;
39874;SDS011;25547;52.530;13.194;2023-06-26T14:22:26;5.07;;;1.55;;
39874;SDS011;25547;52.530;13.194;2023-06-26T14:24:52;7.25;;;1.00;;
39874;SDS011;25547;52.530;13.194;2023-06-26T14:27:18;3.63;;;0.77;;
39874;SDS011;25547;52.530;13.194;2023-06-26T14:29:44;9.45;;;2.13;;
39874;SDS011;25547;52.530;13.194;2023-06-26T14:32:11;3.65;;;1.10;;
39874;SDS011;25547;52.530;13.194;2023-06-26T14:34:37;7.65;;;1.30;;
39874;SDS011;25547;52.530;13.194;2023-06-26T14:37:07;6.82;;;1.90;;
39874;SDS011;25547;52.530;13.194;2023-06-26T14:39:34;4.00;;;3.08;;
39874;SDS011;25547;52.530;13.194;2023-06-26T14:42:03;5.03;;;2.65;;
39874;SDS011;25547;52.530;13.194;2023-06-26T14:44:30;6.45;;;3.65;;
39874;SDS011;25547;52.530;13.194;2023-06-26T14:46:56;6.63;;;2.88;;
39874;SDS011;25547;52.530;13.194;2023-06-26T14:49:21;5.40;;;2.65;;
39874;SDS011;25547;52.530;13.194;2023-06-26T14:51:47;12.63;;;2.30;;
39874;SDS011;25547;52.530;13.194;2023-06-26T14:54:15;5.68;;;1.77;;
39874;SDS011;25547;52.530;13.194;2023-06-26T14:56:43;6.57;;;2.03;;
39874;SDS011;25547;52.530;13.194;2023-06-26T14:59:13;10.48;;;2.58;;
39874;SDS011;25547;52.530;13.194;2023-06-26T15:01:39;6.65;;;1.33;;
39874;SDS011;25547;52.530;13.194;2023-06-26T15:04:09;2.55;;;1.35;;
39874;SDS011;25547;52.530;13.194;2023-06-26T15:06:35;2.53;;;1.17;;
39874;SDS011;25547;52.530;13.194;2023-06-26T15:09:00;4.85;;;1.92;;
39874;SDS011;25547;52.530;13.194;2023-06-26T15:11:28;2.90;;;1.65;;